createdAt,value
2023-03-21T00:01:57.858Z,10.17
2023-03-21T00:04:29.678Z,10.10
2023-03-21T00:06:58.302Z,10.13
2023-03-21T00:09:25.220Z,9.71
2023-03-21T00:11:52.096Z,9.76
2023-03-21T00:14:20.293Z,9.81
2023-03-21T00:16:53.119Z,9.89
2023-03-21T00:19:21.224Z,9.90
2023-03-21T00:22:05.815Z,9.94
2023-03-21T00:24:33.907Z,10.01
2023-03-21T00:27:24.635Z,9.88
2023-03-21T00:29:51.364Z,10.14
2023-03-21T00:32:19.804Z,10.27
2023-03-21T00:35:01.331Z,10.31
2023-03-21T00:37:29.387Z,10.38
2023-03-21T00:39:56.610Z,10.38
2023-03-21T00:42:23.984Z,10.19
2023-03-21T00:44:50.879Z,10.26
2023-03-21T00:47:18.286Z,10.24
2023-03-21T00:49:45.358Z,10.21
2023-03-21T00:52:18.634Z,10.15
2023-03-21T00:54:52.202Z,10.09
2023-03-21T00:57:22.094Z,10.08
2023-03-21T00:59:51.202Z,9.96
2023-03-21T01:02:23.424Z,9.59
2023-03-21T01:04:51.418Z,9.72
2023-03-21T01:07:18.588Z,9.51
2023-03-21T01:09:45.839Z,9.26
2023-03-21T01:12:13.201Z,9.51
2023-03-21T01:14:40.178Z,9.39
2023-03-21T01:17:07.077Z,9.57
2023-03-21T01:19:50.298Z,9.36
2023-03-21T01:22:18.590Z,9.31
2023-03-21T01:24:53.819Z,9.41
2023-03-21T01:27:22.279Z,9.15
2023-03-21T01:29:49.341Z,9.14
2023-03-21T01:32:16.967Z,9.16
2023-03-21T01:34:43.856Z,9.08
2023-03-21T01:37:10.995Z,9.00
2023-03-21T01:39:37.964Z,8.71
2023-03-21T01:42:04.979Z,8.75
2023-03-21T01:44:32.223Z,8.62
2023-03-21T01:47:10.508Z,8.41
2023-03-21T01:49:46.541Z,8.74
2023-03-21T01:52:29.783Z,8.80
2023-03-21T01:55:02.702Z,8.79
2023-03-21T01:57:43.533Z,8.78
2023-03-21T02:00:16.073Z,8.76
2023-03-21T02:03:19.038Z,8.82
2023-03-21T02:05:55.919Z,8.80
2023-03-21T02:08:30.516Z,8.82
2023-03-21T02:11:05.688Z,8.86
2023-03-21T02:13:32.775Z,8.76
2023-03-21T02:16:08.315Z,8.82
2023-03-21T02:18:43.324Z,8.89
2023-03-21T02:21:45.604Z,8.88
2023-03-21T02:24:15.396Z,8.93
2023-03-21T02:27:04.088Z,8.96
2023-03-21T02:30:02.423Z,8.93
2023-03-21T02:32:57.487Z,8.73
2023-03-21T02:35:51.810Z,8.71
2023-03-21T02:38:43.356Z,8.73
2023-03-21T02:41:29.873Z,8.72
2023-03-21T02:44:14.678Z,8.55
2023-03-21T02:46:59.678Z,8.55
2023-03-21T02:49:47.525Z,8.33
2023-03-21T02:52:35.579Z,8.43
2023-03-21T02:55:14.042Z,8.57
2023-03-21T02:57:47.398Z,8.66
2023-03-21T03:00:20.320Z,8.30
2023-03-21T03:02:54.663Z,8.49
2023-03-21T03:05:29.591Z,8.49
2023-03-21T03:08:24.031Z,8.18
2023-03-21T03:10:56.580Z,8.22
2023-03-21T03:13:34.866Z,8.31
2023-03-21T03:16:08.057Z,8.32
2023-03-21T03:18:45.581Z,8.22
2023-03-21T03:21:34.341Z,8.30
2023-03-21T03:24:12.142Z,8.25
2023-03-21T03:26:43.763Z,8.34
2023-03-21T03:29:16.879Z,8.28
2023-03-21T03:31:51.862Z,8.19
2023-03-21T03:34:22.525Z,8.19
2023-03-21T03:36:56.586Z,8.17
2023-03-21T03:39:33.177Z,8.33
2023-03-21T03:42:21.788Z,8.06
2023-03-21T03:44:54.821Z,8.12
2023-03-21T03:47:32.322Z,7.97
2023-03-21T03:50:09.919Z,7.94
2023-03-21T03:52:55.656Z,7.90
2023-03-21T03:55:27.470Z,7.91
2023-03-21T03:57:55.734Z,8.10
2023-03-21T04:00:23.037Z,8.24
2023-03-21T04:02:50.572Z,8.25
2023-03-21T04:05:21.532Z,8.19
2023-03-21T04:07:51.208Z,8.12
2023-03-21T04:10:18.719Z,8.11
2023-03-21T04:12:45.640Z,8.18
2023-03-21T04:15:13.190Z,8.04
2023-03-21T04:17:40.300Z,8.11
2023-03-21T04:20:15.228Z,7.99
2023-03-21T04:22:45.908Z,8.30
2023-03-21T04:25:21.896Z,7.90
2023-03-21T04:27:51.404Z,8.15
2023-03-21T04:30:19.939Z,8.25
2023-03-21T04:32:56.843Z,8.04
2023-03-21T04:35:25.230Z,8.14
2023-03-21T04:37:52.233Z,8.30
2023-03-21T04:40:19.408Z,8.44
2023-03-21T04:42:48.078Z,8.17
2023-03-21T04:45:17.144Z,8.44
2023-03-21T04:47:44.449Z,8.40
2023-03-21T04:50:13.565Z,8.29
2023-03-21T04:52:40.645Z,8.40
2023-03-21T04:55:10.450Z,8.45
2023-03-21T04:57:38.633Z,8.36
2023-03-21T05:00:11.397Z,8.23
2023-03-21T05:02:39.192Z,8.10
2023-03-21T05:05:07.281Z,8.29
2023-03-21T05:07:34.237Z,8.44
2023-03-21T05:10:02.860Z,8.36
2023-03-21T05:12:29.795Z,8.35
2023-03-21T05:14:57.255Z,8.44
2023-03-21T05:17:25.174Z,8.10
2023-03-21T05:19:53.097Z,8.48
2023-03-21T05:22:20.850Z,8.37
2023-03-21T05:24:51.019Z,8.24
2023-03-21T05:27:34.426Z,8.38
2023-03-21T05:30:01.916Z,8.25
2023-03-21T05:32:29.011Z,8.38
2023-03-21T05:34:56.659Z,8.21
2023-03-21T05:37:24.054Z,8.28
2023-03-21T05:39:51.560Z,8.00
2023-03-21T05:42:19.160Z,8.23
2023-03-21T05:44:46.466Z,8.32
2023-03-21T05:47:15.219Z,8.60
2023-03-21T05:49:42.556Z,9.09
2023-03-21T05:52:10.260Z,10.43
2023-03-21T05:54:37.695Z,11.79
2023-03-21T05:57:05.659Z,13.27
2023-03-21T05:59:32.852Z,14.92
2023-03-21T06:01:59.927Z,16.12
2023-03-21T06:04:27.300Z,16.90
2023-03-21T06:06:54.800Z,18.10
2023-03-21T06:09:22.838Z,18.84
2023-03-21T06:11:53.521Z,19.63
2023-03-21T06:14:21.663Z,20.48
2023-03-21T06:16:48.682Z,21.12
2023-03-21T06:19:15.939Z,21.35
2023-03-21T06:21:43.655Z,21.59
2023-03-21T06:24:10.861Z,21.32
2023-03-21T06:26:38.533Z,20.93
2023-03-21T06:29:06.224Z,19.92
2023-03-21T06:31:33.138Z,19.81
2023-03-21T06:34:00.300Z,19.22
2023-03-21T06:36:27.939Z,18.61
2023-03-21T06:38:54.866Z,18.37
2023-03-21T06:41:21.877Z,18.02
2023-03-21T06:43:48.790Z,17.68
2023-03-21T06:46:15.790Z,17.49
2023-03-21T06:48:44.806Z,17.24
2023-03-21T06:51:17.640Z,17.41
2023-03-21T06:53:44.926Z,17.79
2023-03-21T06:56:13.270Z,18.08
2023-03-21T06:58:41.616Z,18.63
2023-03-21T07:01:09.730Z,19.19
2023-03-21T07:03:38.138Z,20.92
2023-03-21T07:06:09.019Z,21.13
2023-03-21T07:08:37.429Z,21.33
2023-03-21T07:11:07.258Z,20.90
2023-03-21T07:13:34.523Z,20.72
2023-03-21T07:16:01.782Z,21.06
2023-03-21T07:18:29.011Z,20.18
2023-03-21T07:20:56.103Z,20.05
2023-03-21T07:23:26.025Z,19.05
2023-03-21T07:25:55.791Z,19.00
2023-03-21T07:28:24.156Z,19.40
2023-03-21T07:30:57.160Z,19.02
2023-03-21T07:33:25.205Z,19.68
2023-03-21T07:35:54.044Z,18.98
2023-03-21T07:38:22.332Z,18.48
2023-03-21T07:40:49.659Z,18.03
2023-03-21T07:45:46.490Z,17.78
2023-03-21T07:48:14.433Z,17.45
2023-03-21T07:50:41.790Z,17.62
2023-03-21T07:53:09.322Z,17.67
2023-03-21T07:55:41.719Z,18.10
2023-03-21T07:58:08.760Z,18.39
2023-03-21T08:00:36.017Z,17.98
2023-03-21T08:03:03.338Z,18.41
2023-03-21T08:05:35.004Z,17.45
2023-03-21T08:08:05.227Z,17.71
2023-03-21T08:10:32.723Z,18.37
2023-03-21T08:13:00.118Z,18.07
2023-03-21T08:15:29.946Z,18.63
2023-03-21T08:17:59.626Z,18.76
2023-03-21T08:20:26.800Z,18.42
2023-03-21T08:22:53.811Z,17.74
2023-03-21T08:25:22.439Z,18.23
2023-03-21T08:27:53.912Z,18.17
2023-03-21T08:30:28.539Z,18.58
2023-03-21T08:33:01.584Z,18.73
2023-03-21T08:35:29.980Z,18.63
2023-03-21T08:37:58.045Z,19.20
2023-03-21T08:40:26.138Z,18.55
2023-03-21T08:42:53.274Z,19.49
2023-03-21T08:45:20.915Z,19.14
2023-03-21T08:47:50.665Z,19.28
2023-03-21T08:50:20.758Z,19.02
2023-03-21T08:52:48.380Z,18.26
2023-03-21T08:55:17.838Z,19.16
2023-03-21T08:57:45.487Z,18.69
2023-03-21T09:00:18.177Z,19.94
2023-03-21T09:02:48.941Z,20.22
2023-03-21T09:05:17.218Z,18.94
2023-03-21T09:07:45.287Z,19.98
2023-03-21T09:10:22.566Z,20.76
2023-03-21T09:12:51.878Z,20.50
2023-03-21T09:15:24.024Z,20.45
2023-03-21T09:17:54.742Z,21.25
2023-03-21T09:20:33.218Z,21.99
2023-03-21T09:23:02.162Z,21.86
2023-03-21T09:25:31.824Z,22.05
2023-03-21T09:28:00.587Z,22.12
2023-03-21T09:30:28.936Z,22.21
2023-03-21T09:32:56.445Z,21.71
2023-03-21T09:35:25.094Z,21.39
2023-03-21T09:37:52.408Z,21.17
2023-03-21T09:40:53.300Z,21.69
2023-03-21T09:43:36.282Z,22.47
2023-03-21T09:46:37.547Z,22.60
2023-03-21T09:49:31.507Z,20.23
2023-03-21T09:52:06.907Z,20.87
2023-03-21T09:54:39.814Z,21.19
2023-03-21T09:57:27.751Z,20.27
2023-03-21T09:59:56.711Z,21.85
2023-03-21T10:03:05.520Z,20.86
2023-03-21T10:05:39.575Z,21.20
2023-03-21T10:08:13.537Z,20.74
2023-03-21T10:10:49.768Z,20.28
2023-03-21T10:13:31.540Z,20.97
2023-03-21T10:16:02.208Z,21.48
2023-03-21T10:18:36.139Z,20.12
2023-03-21T10:21:07.786Z,20.96
2023-03-21T10:23:35.682Z,20.66
2023-03-21T10:26:06.858Z,21.46
2023-03-21T10:28:52.425Z,21.72
2023-03-21T10:31:25.626Z,21.72
2023-03-21T10:33:57.395Z,22.60
2023-03-21T10:36:36.085Z,22.84
2023-03-21T10:39:06.994Z,23.32
2023-03-21T10:41:35.410Z,23.13
2023-03-21T10:44:15.024Z,22.62
2023-03-21T10:46:54.596Z,23.54
2023-03-21T10:49:22.374Z,24.17
2023-03-21T10:51:57.351Z,24.77
2023-03-21T10:54:30.256Z,24.22
2023-03-21T10:57:03.348Z,23.37
2023-03-21T10:59:39.183Z,23.42
2023-03-21T11:02:16.646Z,24.33
2023-03-21T11:04:45.138Z,24.77
2023-03-21T11:07:15.577Z,25.49
2023-03-21T11:09:54.563Z,23.61
2023-03-21T11:12:37.417Z,23.95
2023-03-21T11:15:43.014Z,23.16
2023-03-21T11:18:23.551Z,23.83
2023-03-21T11:20:56.563Z,22.86
2023-03-21T11:23:30.018Z,22.40
2023-03-21T11:26:01.244Z,22.58
2023-03-21T11:28:37.972Z,22.43
2023-03-21T11:31:07.347Z,22.86
2023-03-21T11:33:44.733Z,22.56
2023-03-21T11:36:23.275Z,22.84
2023-03-21T11:38:53.267Z,22.77
2023-03-21T11:41:36.349Z,23.46
2023-03-21T11:44:03.993Z,24.47
2023-03-21T11:46:32.878Z,24.43
2023-03-21T11:49:01.753Z,22.59
2023-03-21T11:52:17.394Z,23.49
2023-03-21T11:55:18.372Z,22.27
2023-03-21T11:58:14.660Z,22.20
2023-03-21T12:00:44.863Z,22.21
2023-03-21T12:03:28.829Z,21.36
2023-03-21T12:06:02.463Z,21.49
2023-03-21T12:09:08.199Z,21.88
2023-03-21T12:11:52.703Z,22.35
2023-03-21T12:14:48.589Z,23.23
2023-03-21T12:17:48.613Z,24.17
2023-03-21T12:20:48.828Z,24.45
2023-03-21T12:23:29.681Z,25.29
2023-03-21T12:26:16.088Z,22.95
2023-03-21T12:29:06.096Z,23.68
2023-03-21T12:31:55.369Z,24.39
2023-03-21T12:34:43.311Z,24.53
2023-03-21T12:37:32.613Z,25.27
2023-03-21T12:40:43.345Z,26.05
2023-03-21T12:43:25.025Z,25.24
2023-03-21T12:45:59.427Z,23.57
2023-03-21T12:48:48.472Z,22.51
2023-03-21T12:51:19.722Z,21.36
2023-03-21T12:54:26.413Z,21.57
2023-03-21T12:57:29.266Z,21.78
2023-03-21T13:00:18.056Z,20.97
2023-03-21T13:02:52.297Z,20.62
2023-03-21T13:05:22.824Z,20.99
2023-03-21T13:08:00.770Z,21.21
2023-03-21T13:10:28.034Z,21.54
2023-03-21T13:13:10.166Z,21.37
2023-03-21T13:15:52.687Z,21.74
2023-03-21T13:18:51.590Z,21.46
2023-03-21T13:21:22.974Z,21.29
2023-03-21T13:24:05.710Z,21.05
2023-03-21T13:26:44.165Z,20.39
2023-03-21T13:29:27.012Z,21.34
2023-03-21T13:32:00.617Z,21.01
2023-03-21T13:34:27.955Z,20.99
2023-03-21T13:36:58.158Z,21.19
2023-03-21T13:39:29.391Z,21.17
2023-03-21T13:42:04.003Z,20.43
2023-03-21T13:44:50.281Z,20.20
2023-03-21T13:47:32.162Z,20.21
2023-03-21T13:50:14.786Z,20.09
2023-03-21T13:52:41.888Z,20.51
2023-03-21T13:55:38.663Z,19.77
2023-03-21T13:58:37.293Z,20.33
2023-03-21T14:01:20.795Z,20.53
2023-03-21T14:03:48.508Z,20.60
2023-03-21T14:06:20.134Z,20.14
2023-03-21T14:08:49.441Z,20.78
2023-03-21T14:11:20.380Z,20.87
2023-03-21T14:13:51.527Z,20.42
2023-03-21T14:16:25.248Z,20.23
2023-03-21T14:18:57.023Z,20.66
2023-03-21T14:21:28.414Z,20.89
2023-03-21T14:24:15.046Z,20.72
2023-03-21T14:26:46.110Z,21.46
2023-03-21T14:29:26.490Z,20.93
2023-03-21T14:31:56.617Z,21.38
2023-03-21T14:34:24.383Z,21.44
2023-03-21T14:36:58.254Z,20.28
2023-03-21T14:39:33.217Z,20.86
2023-03-21T14:42:14.070Z,20.70
2023-03-21T14:44:58.119Z,20.00
2023-03-21T14:47:30.384Z,20.65
2023-03-21T14:49:58.454Z,20.92
2023-03-21T14:52:35.009Z,21.70
2023-03-21T14:55:06.228Z,20.97
2023-03-21T14:57:33.973Z,21.10
2023-03-21T15:00:13.151Z,21.63
2023-03-21T15:02:42.248Z,21.79
2023-03-21T15:05:33.984Z,22.28
2023-03-21T15:08:13.292Z,22.44
2023-03-21T15:10:42.596Z,22.89
2023-03-21T15:13:22.951Z,22.53
2023-03-21T15:15:50.766Z,22.83
2023-03-21T15:18:28.635Z,22.21
2023-03-21T15:20:59.012Z,21.71
2023-03-21T15:23:33.728Z,22.22
2023-03-21T15:26:04.281Z,22.40
2023-03-21T15:28:33.343Z,21.91
2023-03-21T15:31:01.619Z,20.73
2023-03-21T15:33:28.840Z,21.23
2023-03-21T15:35:58.045Z,20.99
2023-03-21T15:38:43.847Z,21.51
2023-03-21T15:41:30.971Z,21.48
2023-03-21T15:44:10.376Z,21.62
2023-03-21T15:46:49.196Z,21.80
2023-03-21T15:49:16.538Z,21.83
2023-03-21T15:51:55.210Z,21.43
2023-03-21T15:54:32.378Z,21.00
2023-03-21T15:57:20.123Z,19.51
2023-03-21T15:59:50.113Z,19.53
2023-03-21T16:02:21.213Z,20.58
2023-03-21T16:05:02.454Z,18.69
2023-03-21T16:07:33.733Z,18.84
2023-03-21T16:10:06.802Z,18.45
2023-03-21T16:12:34.477Z,18.32
2023-03-21T16:15:01.360Z,17.95
2023-03-21T16:17:41.765Z,17.65
2023-03-21T16:20:24.602Z,18.07
2023-03-21T16:22:52.077Z,17.48
2023-03-21T16:25:19.347Z,17.49
2023-03-21T16:27:47.711Z,17.68
2023-03-21T16:30:17.806Z,17.46
2023-03-21T16:32:44.928Z,17.27
2023-03-21T16:35:12.297Z,17.27
2023-03-21T16:37:39.421Z,17.14
2023-03-21T16:40:23.400Z,17.24
2023-03-21T16:42:50.451Z,17.23
2023-03-21T16:45:17.689Z,16.87
2023-03-21T16:47:45.691Z,17.27
2023-03-21T16:50:36.909Z,17.54
2023-03-21T16:53:03.965Z,16.96
2023-03-21T16:55:33.725Z,17.75
2023-03-21T16:58:03.361Z,18.11
2023-03-21T17:00:31.566Z,18.00
2023-03-21T17:03:04.592Z,17.58
2023-03-21T17:05:51.609Z,16.83
2023-03-21T17:08:25.723Z,17.76
2023-03-21T17:10:53.364Z,17.69
2023-03-21T17:13:20.891Z,17.15
2023-03-21T17:15:48.024Z,17.33
2023-03-21T17:18:15.125Z,17.65
2023-03-21T17:20:42.748Z,16.96
2023-03-21T17:23:10.478Z,16.75
2023-03-21T17:25:39.538Z,17.43
2023-03-21T17:28:06.704Z,17.75
2023-03-21T17:30:35.969Z,17.46
2023-03-21T17:33:03.179Z,17.68
2023-03-21T17:35:30.433Z,17.63
2023-03-21T17:37:58.692Z,18.16
2023-03-21T17:40:31.438Z,18.05
2023-03-21T17:43:01.200Z,18.15
2023-03-21T17:45:27.965Z,17.88
2023-03-21T17:47:55.257Z,17.03
2023-03-21T17:50:25.466Z,17.87
2023-03-21T17:52:52.858Z,17.94
2023-03-21T17:55:21.991Z,18.06
2023-03-21T17:57:49.945Z,18.31
2023-03-21T18:00:21.446Z,18.44
2023-03-21T18:02:51.626Z,18.60
2023-03-21T18:05:21.431Z,18.65
2023-03-21T18:10:37.288Z,18.46
2023-03-21T18:13:04.464Z,18.76
2023-03-21T18:15:31.929Z,18.85
2023-03-21T18:17:59.509Z,18.92
2023-03-21T18:20:49.860Z,18.98
2023-03-21T18:23:15.978Z,19.04
2023-03-21T18:25:43.156Z,19.06
2023-03-21T18:28:12.360Z,18.99
2023-03-21T18:31:00.381Z,18.98
2023-03-21T18:33:27.928Z,18.91
2023-03-21T18:35:59.874Z,18.87
2023-03-21T18:38:29.188Z,18.72
2023-03-21T18:40:56.536Z,18.69
2023-03-21T18:46:11.249Z,18.66
2023-03-21T18:48:39.328Z,18.58
2023-03-21T18:51:06.501Z,18.61
2023-03-21T18:53:33.531Z,18.54
2023-03-21T18:56:03.179Z,18.40
2023-03-21T18:58:30.060Z,18.40
2023-03-21T19:00:58.211Z,18.41
2023-03-21T19:03:35.907Z,18.20
2023-03-21T19:06:05.358Z,18.33
2023-03-21T19:08:34.905Z,18.00
2023-03-21T19:11:06.052Z,17.82
2023-03-21T19:13:34.728Z,17.87
2023-03-21T19:16:03.120Z,17.98
2023-03-21T19:21:20.034Z,17.75
2023-03-21T19:26:34.438Z,17.80
2023-03-21T19:29:01.458Z,17.73
2023-03-21T19:31:28.621Z,17.71
2023-03-21T19:33:55.891Z,17.68
2023-03-21T19:36:23.594Z,17.71
2023-03-21T19:38:51.533Z,17.59
2023-03-21T19:41:21.544Z,17.65
2023-03-21T19:43:54.836Z,17.63
2023-03-21T19:46:27.059Z,17.62
2023-03-21T19:48:56.540Z,17.66
2023-03-21T19:51:28.777Z,17.58
2023-03-21T19:53:58.004Z,17.68
2023-03-21T19:56:27.390Z,17.60
2023-03-21T19:58:57.794Z,17.47
2023-03-21T20:01:25.524Z,17.45
2023-03-21T20:03:52.847Z,17.38
2023-03-21T20:06:22.719Z,17.35
2023-03-21T20:09:34.129Z,17.25
2023-03-21T20:11:38.342Z,17.22
2023-03-21T20:14:06.588Z,17.24
2023-03-21T20:16:35.674Z,17.10
2023-03-21T20:19:09.274Z,17.16
2023-03-21T20:21:48.143Z,16.99
2023-03-21T20:24:18.061Z,16.98
2023-03-21T20:26:45.991Z,16.83
2023-03-21T20:30:07.533Z,16.85
2023-03-21T20:32:01.087Z,16.69
2023-03-21T20:34:29.133Z,16.61
2023-03-21T20:36:58.781Z,16.64
2023-03-21T20:39:28.658Z,16.53
2023-03-21T20:41:58.973Z,16.25
2023-03-21T20:44:57.402Z,16.22
2023-03-21T20:47:14.811Z,16.13
2023-03-21T20:49:41.782Z,16.26
2023-03-21T20:54:59.393Z,15.94
2023-03-21T20:57:30.510Z,15.93
2023-03-21T20:59:58.007Z,15.96
2023-03-21T21:02:25.473Z,15.84
2023-03-21T21:05:21.897Z,15.72
2023-03-21T21:07:43.179Z,15.71
2023-03-21T21:10:14.149Z,15.53
2023-03-21T21:12:45.368Z,15.68
2023-03-21T21:15:15.309Z,15.71
2023-03-21T21:20:29.935Z,14.83
2023-03-21T21:23:00.105Z,14.96
2023-03-21T21:25:29.388Z,15.15
2023-03-21T21:27:56.816Z,15.05
2023-03-21T21:30:24.837Z,14.99
2023-03-21T21:32:51.928Z,14.85
2023-03-21T21:35:20.838Z,15.05
2023-03-21T21:37:51.491Z,14.92
2023-03-21T21:40:20.797Z,14.80
2023-03-21T21:42:48.677Z,14.59
2023-03-21T21:45:16.114Z,14.01
2023-03-21T21:47:45.330Z,14.45
2023-03-21T21:50:13.588Z,14.50
2023-03-21T21:52:43.885Z,14.64
2023-03-21T21:55:11.316Z,14.63
2023-03-21T21:57:39.967Z,14.58
2023-03-21T22:00:13.235Z,14.70
2023-03-21T22:02:41.544Z,14.26
2023-03-21T22:05:11.051Z,14.65
2023-03-21T22:07:39.399Z,14.64
2023-03-21T22:10:07.085Z,14.43
2023-03-21T22:12:34.645Z,14.58
2023-03-21T22:15:01.901Z,14.54
2023-03-21T22:17:28.910Z,14.46
2023-03-21T22:20:05.580Z,14.47
2023-03-21T22:22:37.014Z,14.47
2023-03-21T22:25:06.140Z,14.46
2023-03-21T22:27:33.788Z,14.47
2023-03-21T22:30:04.625Z,14.27
2023-03-21T22:32:32.769Z,14.25
2023-03-21T22:35:02.692Z,14.21
2023-03-21T22:37:29.960Z,14.20
2023-03-21T22:39:56.891Z,14.26
2023-03-21T22:42:24.071Z,14.30
2023-03-21T22:44:51.005Z,14.12
2023-03-21T22:47:18.462Z,14.21
2023-03-21T22:49:46.604Z,14.12
2023-03-21T22:52:14.492Z,14.02
2023-03-21T22:54:41.645Z,14.01
2023-03-21T22:57:09.250Z,14.00
2023-03-21T22:59:36.277Z,14.17
2023-03-21T23:02:03.386Z,13.93
2023-03-21T23:04:31.551Z,14.21
2023-03-21T23:06:58.846Z,14.26
2023-03-21T23:09:25.839Z,14.21
2023-03-21T23:11:52.778Z,14.14
2023-03-21T23:14:21.192Z,14.10
2023-03-21T23:16:49.944Z,14.01
2023-03-21T23:19:17.678Z,14.20
2023-03-21T23:21:44.900Z,14.41
2023-03-21T23:24:11.979Z,14.34
2023-03-21T23:26:39.923Z,14.16
2023-03-21T23:29:09.420Z,14.32
2023-03-21T23:31:37.095Z,14.16
2023-03-21T23:34:04.793Z,13.96
2023-03-21T23:36:32.401Z,14.14
2023-03-21T23:38:59.399Z,14.22
2023-03-21T23:41:26.487Z,14.14
2023-03-21T23:43:54.147Z,13.94
2023-03-21T23:46:21.871Z,14.17
2023-03-21T23:48:49.402Z,14.14
2023-03-21T23:51:18.302Z,13.94
2023-03-21T23:53:46.571Z,14.01
2023-03-21T23:56:22.051Z,13.97
2023-03-21T23:58:50.455Z,14.03
